Time;durP1;ratioP1;P1;durP2;ratioP2;P2;SDS_P1;SDS_P2;PMS_P1;PMS_P2;Temp;Humidity;BMP_temperature;BMP_pressure;BME280_temperature;BME280_humidity;BME280_pressure;Samples;Min_cycle;Max_cycle;Signal;HPM_P1;HPM_P2
2023/01/02 00:00:11;;;;;;;4.37;3.40;;;11.80;99.90;;;;;;5035848;28;20217;-64
2023/01/02 00:02:40;;;;;;;6.50;3.77;;;11.90;99.90;;;;;;5033954;28;20234;-64
2023/01/02 00:05:07;;;;;;;6.63;3.73;;;12.00;99.90;;;;;;5034068;28;20320;-63
2023/01/02 00:07:34;;;;;;;5.73;3.97;;;12.00;99.90;;;;;;5033779;28;20589;-64
2023/01/02 00:10:00;;;;;;;6.40;3.67;;;12.10;99.90;;;;;;5033690;28;20210;-64
2023/01/02 00:12:27;;;;;;;5.20;3.80;;;12.00;99.90;;;;;;5033200;28;20237;-64
2023/01/02 00:14:53;;;;;;;5.17;3.90;;;12.00;99.90;;;;;;5033667;28;20708;-64
2023/01/02 00:17:20;;;;;;;5.13;3.70;;;12.00;99.90;;;;;;5033293;28;20229;-64
2023/01/02 00:19:48;;;;;;;6.10;3.73;;;12.00;99.90;;;;;;5033312;28;20653;-64
2023/01/02 00:22:15;;;;;;;5.23;3.53;;;12.00;99.90;;;;;;5032997;28;20355;-64
2023/01/02 00:24:42;;;;;;;7.90;3.53;;;12.00;99.90;;;;;;5033123;28;20224;-64
2023/01/02 00:27:08;;;;;;;5.53;3.30;;;12.00;99.90;;;;;;5032237;28;20203;-64
2023/01/02 00:29:35;;;;;;;4.97;3.50;;;11.90;99.90;;;;;;5032867;28;20214;-64
2023/01/02 00:32:02;;;;;;;5.07;3.50;;;11.80;99.90;;;;;;5032925;28;20230;-64
2023/01/02 00:34:28;;;;;;;5.73;3.80;;;11.90;99.90;;;;;;5032989;28;20214;-64
2023/01/02 00:36:56;;;;;;;6.73;3.37;;;11.90;99.90;;;;;;5032973;28;20253;-64
2023/01/02 00:39:23;;;;;;;4.50;3.17;;;11.90;99.90;;;;;;5032728;28;20218;-64
2023/01/02 00:41:50;;;;;;;7.33;3.80;;;11.90;99.90;;;;;;5032275;28;20238;-63
2023/01/02 00:44:16;;;;;;;4.87;3.23;;;11.90;99.90;;;;;;5032681;28;20269;-64
2023/01/02 00:46:43;;;;;;;4.03;2.97;;;11.90;99.90;;;;;;5032612;28;20254;-64
2023/01/02 00:49:10;;;;;;;3.80;3.00;;;11.90;99.90;;;;;;5032800;28;20264;-64
2023/01/02 00:51:36;;;;;;;3.87;3.40;;;12.00;99.90;;;;;;5032447;28;20233;-64
2023/01/02 00:54:04;;;;;;;4.03;2.80;;;12.10;99.90;;;;;;5032524;28;20206;-64
2023/01/02 00:56:31;;;;;;;3.97;2.90;;;12.10;99.90;;;;;;5032440;28;20202;-64
2023/01/02 00:58:58;;;;;;;6.93;3.30;;;12.20;99.90;;;;;;5032612;28;20210;-63
2023/01/02 01:01:24;;;;;;;3.67;2.50;;;12.20;99.90;;;;;;5032324;28;20203;-62
2023/01/02 01:03:51;;;;;;;5.13;3.17;;;12.20;99.90;;;;;;5032382;28;20206;-63
2023/01/02 01:06:20;;;;;;;6.47;2.90;;;12.20;99.90;;;;;;5032309;28;20233;-63
2023/01/02 01:08:47;;;;;;;5.60;3.67;;;12.20;99.90;;;;;;5032272;28;20245;-62
2023/01/02 01:11:17;;;;;;;4.50;3.63;;;12.20;99.90;;;;;;5032024;28;20209;-63
2023/01/02 01:13:44;;;;;;;4.83;3.40;;;12.20;99.90;;;;;;5032287;28;20219;-63
2023/01/02 01:16:13;;;;;;;5.93;3.57;;;12.20;99.90;;;;;;5032358;28;20210;-63
2023/01/02 01:18:40;;;;;;;5.73;3.57;;;12.20;99.90;;;;;;5032444;28;20202;-63
2023/01/02 01:21:07;;;;;;;6.07;3.40;;;12.30;99.90;;;;;;5032501;28;20296;-63
2023/01/02 01:23:34;;;;;;;5.73;3.77;;;12.20;99.90;;;;;;5032179;28;20237;-64
2023/01/02 01:26:04;;;;;;;7.13;3.60;;;12.10;99.90;;;;;;5032183;28;20686;-63
2023/01/02 01:28:32;;;;;;;6.13;3.57;;;12.20;99.90;;;;;;5032467;28;20297;-63
2023/01/02 01:31:03;;;;;;;6.10;3.80;;;12.20;99.90;;;;;;5032501;28;20211;-64
2023/01/02 01:33:31;;;;;;;5.90;4.03;;;12.20;99.90;;;;;;5031906;28;20260;-62
2023/01/02 01:36:01;;;;;;;6.37;3.80;;;12.20;99.90;;;;;;5032232;28;20230;-62
2023/01/02 01:38:28;;;;;;;5.47;3.70;;;12.30;99.90;;;;;;5032112;28;20241;-62
2023/01/02 01:40:54;;;;;;;4.77;3.50;;;12.40;99.90;;;;;;5032290;28;20202;-63
2023/01/02 01:43:37;;;;;;;4.73;3.43;;;12.50;99.90;;;;;;5056942;22;20295;-60
2023/01/02 01:46:06;;;;;;;4.53;3.30;;;12.50;99.90;;;;;;5034648;28;20237;-60
2023/01/02 01:48:33;;;;;;;6.77;3.50;;;12.50;99.90;;;;;;5034314;28;20206;-60
2023/01/02 01:51:00;;;;;;;4.53;3.70;;;12.50;99.90;;;;;;5034980;28;20213;-60
2023/01/02 01:53:27;;;;;;;5.77;3.80;;;12.50;99.90;;;;;;5034145;28;20226;-61
2023/01/02 01:55:58;;;;;;;5.03;3.40;;;12.50;99.90;;;;;;5034741;28;20210;-59
2023/01/02 01:58:29;;;;;;;7.70;3.50;;;12.40;99.90;;;;;;5034703;28;20325;-60
2023/01/02 02:00:58;;;;;;;5.07;3.67;;;12.40;99.90;;;;;;5034593;28;20213;-59
2023/01/02 02:03:28;;;;;;;4.97;3.40;;;12.40;99.90;;;;;;5033985;28;20709;-60
2023/01/02 02:05:57;;;;;;;6.70;3.43;;;12.40;99.90;;;;;;5034969;28;20230;-60
2023/01/02 02:08:31;;;;;;;8.60;3.80;;;12.40;99.90;;;;;;5034460;28;20206;-60
2023/01/02 02:10:59;;;;;;;5.23;3.23;;;12.40;99.90;;;;;;5034812;28;20202;-59
2023/01/02 02:13:27;;;;;;;6.50;3.60;;;12.50;99.90;;;;;;5034582;28;20229;-60
2023/01/02 02:16:05;;;;;;;6.90;3.63;;;12.50;99.90;;;;;;5036736;28;20203;-60
2023/01/02 02:18:45;;;;;;;5.57;3.53;;;12.50;99.90;;;;;;5034938;28;20297;-60
2023/01/02 02:21:25;;;;;;;7.57;3.40;;;12.40;99.90;;;;;;5035868;28;20834;-60
2023/01/02 02:24:31;;;;;;;4.87;2.80;;;12.30;99.90;;;;;;5034749;28;20685;-60
2023/01/02 02:27:31;;;;;;;4.20;2.83;;;12.30;99.90;;;;;;5034877;28;20599;-60
2023/01/02 02:30:25;;;;;;;3.77;2.80;;;12.40;99.90;;;;;;5034701;28;20282;-60
2023/01/02 02:33:14;;;;;;;4.67;2.40;;;12.40;99.90;;;;;;5015691;28;20238;-61
2023/01/02 02:35:52;;;;;;;2.90;2.37;;;12.30;99.90;;;;;;5034385;28;20229;-60
2023/01/02 02:38:29;;;;;;;5.03;2.37;;;12.20;99.90;;;;;;5033992;28;20211;-60
2023/01/02 02:41:05;;;;;;;5.50;1.90;;;12.20;99.90;;;;;;5034209;28;20380;-60
2023/01/02 02:43:44;;;;;;;4.57;2.43;;;12.20;99.90;;;;;;5034634;28;20736;-59
2023/01/02 02:46:18;;;;;;;4.57;2.40;;;12.30;99.90;;;;;;5034925;28;20230;-60
2023/01/02 02:48:53;;;;;;;2.83;2.07;;;12.30;99.90;;;;;;5033983;28;20205;-59
2023/01/02 02:51:29;;;;;;;5.33;2.10;;;12.20;99.90;;;;;;5037451;28;20210;-60
2023/01/02 02:54:00;;;;;;;2.40;1.80;;;12.20;99.90;;;;;;5037708;28;20619;-60
2023/01/02 02:56:28;;;;;;;3.73;2.30;;;12.30;99.90;;;;;;5037918;28;20213;-59
2023/01/02 02:58:56;;;;;;;2.77;1.93;;;12.30;99.90;;;;;;5037604;28;20760;-61
2023/01/02 03:01:28;;;;;;;3.77;1.90;;;12.10;99.90;;;;;;5037703;28;20210;-60
2023/01/02 03:03:54;;;;;;;2.63;1.67;;;12.10;99.90;;;;;;5038142;28;20217;-60
2023/01/02 03:06:42;;;;;;;6.53;1.90;;;12.20;99.90;;;;;;5037552;28;20237;-60
2023/01/02 03:09:17;;;;;;;2.00;1.60;;;12.30;99.90;;;;;;5037723;28;20216;-60
2023/01/02 03:11:51;;;;;;;2.00;1.70;;;12.30;99.90;;;;;;5036585;28;20665;-60
2023/01/02 03:14:24;;;;;;;3.03;1.77;;;12.30;99.90;;;;;;5038333;28;20214;-60
2023/01/02 03:16:56;;;;;;;3.20;1.77;;;12.30;99.90;;;;;;5037428;28;20285;-60
2023/01/02 03:19:31;;;;;;;5.23;1.70;;;12.30;99.90;;;;;;5036920;28;20202;-61
2023/01/02 03:22:02;;;;;;;4.20;1.47;;;12.20;99.90;;;;;;5035983;28;20225;-61
2023/01/02 03:24:30;;;;;;;3.47;1.90;;;12.20;99.90;;;;;;5036796;28;20198;-60
2023/01/02 03:27:02;;;;;;;3.43;1.80;;;12.20;99.90;;;;;;5036582;28;20233;-60
2023/01/02 03:29:34;;;;;;;3.00;1.80;;;12.20;99.90;;;;;;5036754;28;20225;-60
2023/01/02 03:32:05;;;;;;;3.80;1.70;;;12.10;99.90;;;;;;5036386;28;20270;-61
2023/01/02 03:34:34;;;;;;;5.43;1.80;;;12.10;99.90;;;;;;5037014;28;20210;-60
2023/01/02 03:37:04;;;;;;;2.37;1.73;;;12.10;99.90;;;;;;5036973;28;20214;-61
2023/01/02 03:39:34;;;;;;;4.07;1.67;;;12.10;99.90;;;;;;5036839;28;20217;-60
2023/01/02 03:42:05;;;;;;;3.23;1.87;;;12.20;99.90;;;;;;5036090;28;20602;-61
2023/01/02 03:44:39;;;;;;;3.07;2.17;;;12.20;99.90;;;;;;5038928;28;20206;-60
2023/01/02 03:47:19;;;;;;;3.33;1.70;;;12.10;99.90;;;;;;5036120;28;20225;-60
2023/01/02 03:49:49;;;;;;;2.37;1.90;;;12.10;99.90;;;;;;5036790;28;20241;-60
2023/01/02 03:52:16;;;;;;;2.03;1.73;;;12.00;99.90;;;;;;5036318;28;20230;-60
2023/01/02 03:54:43;;;;;;;4.57;2.30;;;12.00;99.90;;;;;;5036183;28;20225;-61
2023/01/02 03:57:20;;;;;;;1.93;1.73;;;12.00;99.90;;;;;;5037660;28;20208;-61
2023/01/02 03:59:55;;;;;;;3.87;1.80;;;12.00;99.90;;;;;;5036117;28;20694;-59
2023/01/02 04:02:29;;;;;;;5.60;1.80;;;12.00;99.90;;;;;;5036113;28;20236;-60
2023/01/02 04:04:59;;;;;;;3.57;2.10;;;12.00;99.90;;;;;;5035277;28;20632;-61
2023/01/02 04:07:30;;;;;;;3.83;1.73;;;12.00;99.90;;;;;;5035964;28;20234;-60
2023/01/02 04:09:59;;;;;;;3.97;2.30;;;11.90;99.90;;;;;;5035827;28;20210;-60
2023/01/02 04:12:29;;;;;;;3.13;1.73;;;11.80;99.90;;;;;;5036406;28;20290;-61
2023/01/02 04:15:00;;;;;;;5.27;1.87;;;11.70;99.90;;;;;;5037603;28;20586;-61
2023/01/02 04:17:33;;;;;;;4.93;1.80;;;11.70;99.90;;;;;;5036558;28;20206;-62
2023/01/02 04:20:02;;;;;;;4.30;2.00;;;11.60;99.90;;;;;;5036763;28;20210;-62
2023/01/02 04:22:32;;;;;;;3.10;1.90;;;11.60;99.90;;;;;;5035702;28;20227;-60
2023/01/02 04:25:06;;;;;;;5.50;1.80;;;11.60;99.90;;;;;;5036230;28;20674;-60
2023/01/02 04:27:36;;;;;;;3.03;1.60;;;11.50;99.90;;;;;;5038124;28;20233;-62
2023/01/02 04:30:03;;;;;;;3.73;1.63;;;11.50;99.90;;;;;;5039032;28;20210;-62
2023/01/02 04:32:37;;;;;;;7.40;2.33;;;11.50;99.90;;;;;;5038243;28;20226;-62
2023/01/02 04:35:07;;;;;;;5.03;2.00;;;11.40;99.90;;;;;;5036952;28;20562;-62
2023/01/02 04:37:35;;;;;;;6.83;2.13;;;11.40;99.90;;;;;;5034328;28;20210;-61
2023/01/02 04:40:07;;;;;;;2.73;1.50;;;11.30;99.90;;;;;;5034296;28;20218;-61
2023/01/02 04:42:33;;;;;;;2.47;1.50;;;11.30;99.90;;;;;;5033360;28;20238;-62
2023/01/02 04:45:00;;;;;;;2.17;1.60;;;11.30;99.90;;;;;;5034677;28;20213;-61
2023/01/02 04:47:27;;;;;;;3.17;1.83;;;11.30;99.90;;;;;;5033669;28;20225;-60
2023/01/02 04:49:55;;;;;;;4.10;1.70;;;11.20;99.90;;;;;;5033572;28;20206;-60
2023/01/02 04:52:21;;;;;;;4.73;1.60;;;11.00;99.90;;;;;;5033588;28;20656;-60
2023/01/02 04:54:48;;;;;;;3.03;1.70;;;11.00;99.90;;;;;;5033694;28;20213;-60
2023/01/02 04:57:15;;;;;;;2.13;1.40;;;10.90;99.90;;;;;;5033823;28;20631;-62
2023/01/02 04:59:41;;;;;;;4.83;1.60;;;10.90;99.90;;;;;;5033979;28;20218;-60
2023/01/02 05:02:08;;;;;;;3.50;1.60;;;10.90;99.90;;;;;;5034691;28;20230;-59
2023/01/02 05:04:35;;;;;;;3.33;2.00;;;10.90;99.90;;;;;;5033360;28;20212;-61
2023/01/02 05:07:04;;;;;;;3.67;1.50;;;10.80;99.90;;;;;;5035611;28;20238;-62
2023/01/02 05:09:31;;;;;;;4.77;1.50;;;10.80;99.90;;;;;;5034219;28;20209;-60
2023/01/02 05:11:57;;;;;;;3.93;1.80;;;10.80;99.90;;;;;;5033453;28;20222;-60
2023/01/02 05:14:24;;;;;;;3.43;1.57;;;10.80;99.90;;;;;;5035076;28;20202;-60
2023/01/02 05:16:51;;;;;;;2.77;1.53;;;10.80;99.90;;;;;;5033056;28;20685;-60
2023/01/02 05:19:17;;;;;;;3.50;1.57;;;10.90;99.90;;;;;;5033503;28;20217;-60
2023/01/02 05:24:30;;;;;;;2.77;1.60;;;11.00;99.90;;;;;;5034459;28;20561;-60
2023/01/02 05:26:56;;;;;;;2.93;1.60;;;11.10;99.90;;;;;;5034279;28;20230;-60
2023/01/02 05:29:23;;;;;;;3.93;1.30;;;11.20;99.90;;;;;;5034201;28;20216;-59
2023/01/02 05:31:50;;;;;;;4.13;1.60;;;11.20;99.90;;;;;;5034413;28;20226;-60
2023/01/02 05:34:17;;;;;;;3.40;1.50;;;11.20;99.90;;;;;;5034990;28;20404;-60
2023/01/02 05:36:44;;;;;;;3.13;1.80;;;11.10;99.90;;;;;;5034451;28;20198;-60
2023/01/02 05:39:12;;;;;;;2.93;1.73;;;11.20;99.90;;;;;;5034156;28;20213;-60
2023/01/02 05:41:40;;;;;;;3.23;1.97;;;11.20;99.90;;;;;;5033551;28;20300;-56
2023/01/02 05:44:08;;;;;;;3.00;1.80;;;11.20;99.90;;;;;;5035546;28;20210;-60
2023/01/02 05:46:36;;;;;;;2.90;1.90;;;11.30;99.90;;;;;;5034708;28;20226;-58
2023/01/02 05:49:04;;;;;;;2.63;1.63;;;11.30;99.90;;;;;;5034156;28;20210;-60
2023/01/02 05:51:30;;;;;;;4.67;2.23;;;11.30;99.90;;;;;;5034802;28;20207;-60
2023/01/02 05:53:57;;;;;;;3.30;2.10;;;11.30;99.90;;;;;;5033624;28;20214;-58
2023/01/02 05:56:26;;;;;;;4.00;1.90;;;11.40;99.90;;;;;;5034398;28;20203;-60
2023/01/02 05:58:54;;;;;;;2.17;1.83;;;11.50;99.90;;;;;;5034342;28;20217;-60
2023/01/02 06:01:22;;;;;;;3.60;2.10;;;11.60;99.90;;;;;;5034157;28;20206;-60
2023/01/02 06:03:51;;;;;;;3.57;2.17;;;11.60;99.90;;;;;;5033915;28;20705;-60
2023/01/02 06:06:20;;;;;;;4.77;1.90;;;11.70;99.90;;;;;;5033763;28;20210;-60
2023/01/02 06:08:46;;;;;;;4.60;1.83;;;11.70;99.90;;;;;;5033621;28;20615;-61
2023/01/02 06:11:13;;;;;;;4.23;1.90;;;11.70;99.90;;;;;;5033650;28;20210;-60
2023/01/02 06:13:40;;;;;;;7.13;1.90;;;11.60;99.90;;;;;;5034650;28;20226;-60
2023/01/02 06:16:11;;;;;;;4.37;1.50;;;11.60;99.90;;;;;;5034403;28;20202;-60
2023/01/02 06:18:39;;;;;;;2.10;1.50;;;11.60;99.90;;;;;;5033911;28;20206;-61
2023/01/02 06:21:08;;;;;;;3.00;1.80;;;11.60;99.90;;;;;;5033180;28;20213;-61
2023/01/02 06:23:35;;;;;;;3.37;2.20;;;11.60;99.90;;;;;;5032894;28;20230;-61
2023/01/02 06:26:03;;;;;;;3.00;2.00;;;11.50;99.90;;;;;;5037400;28;20225;-61
2023/01/02 06:28:30;;;;;;;4.47;1.80;;;11.50;99.90;;;;;;5037701;28;20272;-60
2023/01/02 06:31:00;;;;;;;3.00;2.00;;;11.40;99.90;;;;;;5037809;28;20210;-61
2023/01/02 06:33:28;;;;;;;4.90;2.00;;;11.50;99.90;;;;;;5037567;28;20261;-61
2023/01/02 06:35:58;;;;;;;2.60;2.23;;;11.40;99.90;;;;;;5037935;28;20566;-61
2023/01/02 06:38:26;;;;;;;3.67;2.20;;;11.30;99.90;;;;;;5038156;28;20206;-61
2023/01/02 06:40:54;;;;;;;3.23;2.00;;;11.30;99.90;;;;;;5038061;28;20681;-59
2023/01/02 06:43:20;;;;;;;5.73;2.63;;;11.20;99.90;;;;;;5037891;28;20237;-60
2023/01/02 06:45:47;;;;;;;4.83;2.40;;;11.20;99.90;;;;;;5038931;28;20210;-61
2023/01/02 06:48:14;;;;;;;6.20;2.77;;;11.10;99.90;;;;;;5037510;28;20702;-61
2023/01/02 06:50:43;;;;;;;3.60;2.53;;;11.00;99.90;;;;;;5037381;28;20212;-61
2023/01/02 06:53:10;;;;;;;7.37;3.80;;;10.90;99.90;;;;;;5037183;28;20234;-61
2023/01/02 06:55:37;;;;;;;8.43;4.00;;;10.80;99.90;;;;;;5037299;28;20206;-61
2023/01/02 06:58:03;;;;;;;2.43;2.10;;;10.70;99.90;;;;;;5037349;28;20206;-61
2023/01/02 07:00:30;;;;;;;4.13;2.30;;;10.70;99.90;;;;;;5037169;28;20202;-61
2023/01/02 07:02:57;;;;;;;4.43;2.60;;;10.60;99.90;;;;;;5037068;28;20226;-60
2023/01/02 07:05:24;;;;;;;3.03;2.13;;;10.40;99.90;;;;;;5037211;28;20217;-64
2023/01/02 07:07:52;;;;;;;3.73;2.53;;;10.30;99.90;;;;;;5037310;28;20669;-61
2023/01/02 07:10:19;;;;;;;8.03;4.30;;;10.30;99.90;;;;;;5036723;28;20260;-61
2023/01/02 07:12:46;;;;;;;8.27;3.50;;;10.30;99.90;;;;;;5036330;28;20253;-61
2023/01/02 07:15:12;;;;;;;10.60;4.03;;;10.20;99.90;;;;;;5037879;28;20222;-61
2023/01/02 07:17:39;;;;;;;6.53;3.60;;;10.30;99.90;;;;;;5036710;28;20205;-61
2023/01/02 07:20:07;;;;;;;7.83;4.03;;;10.30;99.90;;;;;;5036572;28;20645;-61
2023/01/02 07:22:33;;;;;;;8.43;4.40;;;10.40;99.90;;;;;;5036444;28;20230;-60
2023/01/02 07:25:01;;;;;;;8.67;4.57;;;10.50;99.90;;;;;;5036519;28;20211;-61
2023/01/02 07:27:29;;;;;;;9.33;4.67;;;10.50;99.90;;;;;;5036877;28;20226;-61
2023/01/02 07:29:55;;;;;;;8.30;4.60;;;10.60;99.90;;;;;;5036674;28;20210;-61
2023/01/02 07:32:22;;;;;;;5.80;3.67;;;10.60;99.90;;;;;;5036330;28;20629;-61
2023/01/02 07:34:49;;;;;;;3.13;2.53;;;10.60;99.90;;;;;;5036740;28;20210;-61
2023/01/02 07:37:16;;;;;;;6.03;2.73;;;10.60;99.90;;;;;;5036340;28;20240;-61
2023/01/02 07:39:43;;;;;;;5.37;3.30;;;10.60;99.90;;;;;;5036732;28;20214;-61
2023/01/02 07:42:11;;;;;;;4.87;3.10;;;10.50;99.90;;;;;;5036531;28;20346;-59
2023/01/02 07:44:37;;;;;;;4.60;2.83;;;10.50;99.90;;;;;;5034349;28;20207;-59
2023/01/02 07:47:04;;;;;;;5.80;2.73;;;10.50;99.90;;;;;;5034231;28;20226;-59
2023/01/02 07:49:31;;;;;;;5.47;3.27;;;10.50;99.90;;;;;;5034411;28;20268;-59
2023/01/02 07:51:58;;;;;;;5.23;2.60;;;10.50;99.90;;;;;;5034447;28;20252;-59
2023/01/02 07:54:24;;;;;;;6.60;2.60;;;10.50;99.90;;;;;;5034335;28;20217;-59
2023/01/02 07:56:52;;;;;;;6.43;3.00;;;10.40;99.90;;;;;;5034081;28;20670;-59
2023/01/02 07:59:20;;;;;;;4.27;2.50;;;10.40;99.90;;;;;;5034042;28;20213;-59
2023/01/02 08:01:47;;;;;;;4.30;2.87;;;10.40;99.90;;;;;;5034102;28;20211;-59
2023/01/02 08:04:13;;;;;;;6.27;2.80;;;10.40;99.90;;;;;;5033642;28;20686;-59
2023/01/02 08:06:40;;;;;;;4.93;2.57;;;10.30;99.90;;;;;;5034092;28;20210;-59
2023/01/02 08:09:08;;;;;;;4.07;2.37;;;10.40;99.90;;;;;;5033569;28;20724;-59
2023/01/02 08:11:36;;;;;;;3.50;1.97;;;10.50;99.90;;;;;;5033760;28;20206;-61
2023/01/02 08:14:03;;;;;;;6.47;2.30;;;10.60;99.90;;;;;;5033952;28;20207;-59
2023/01/02 08:16:31;;;;;;;2.30;1.90;;;10.70;99.90;;;;;;5034022;28;20210;-59
2023/01/02 08:18:57;;;;;;;3.87;2.23;;;10.80;99.90;;;;;;5033979;28;20210;-59
2023/01/02 08:21:25;;;;;;;4.07;2.30;;;10.80;99.90;;;;;;5033459;28;20666;-59
2023/01/02 08:23:52;;;;;;;5.57;2.40;;;10.90;99.90;;;;;;5033685;28;20637;-59
2023/01/02 08:26:19;;;;;;;6.60;2.23;;;11.00;99.90;;;;;;5033517;28;20236;-59
2023/01/02 08:28:46;;;;;;;4.33;2.20;;;11.20;99.90;;;;;;5033342;28;20241;-61
2023/01/02 08:31:15;;;;;;;3.77;1.90;;;11.30;99.90;;;;;;5033626;28;20210;-59
2023/01/02 08:33:45;;;;;;;5.23;2.47;;;11.50;99.90;;;;;;5033110;28;20233;-59
2023/01/02 08:36:13;;;;;;;5.13;2.20;;;11.60;99.90;;;;;;5033532;28;20214;-60
2023/01/02 08:38:40;;;;;;;6.97;3.30;;;11.70;99.90;;;;;;5033518;28;20340;-59
2023/01/02 08:41:07;;;;;;;5.83;3.00;;;11.70;99.90;;;;;;5033714;28;20681;-60
2023/01/02 08:43:35;;;;;;;3.60;2.50;;;11.80;99.90;;;;;;5032815;28;20737;-58
2023/01/02 08:46:03;;;;;;;6.10;2.60;;;11.90;99.90;;;;;;5033111;28;20209;-58
2023/01/02 08:48:30;;;;;;;4.43;2.37;;;12.00;99.90;;;;;;5032495;28;20261;-60
2023/01/02 08:50:58;;;;;;;5.43;2.30;;;12.10;99.90;;;;;;5033151;28;20206;-59
2023/01/02 08:53:25;;;;;;;3.60;2.40;;;12.20;99.90;;;;;;5032906;28;20226;-59
2023/01/02 08:55:52;;;;;;;3.93;2.00;;;12.20;99.90;;;;;;5032945;28;20593;-60
2023/01/02 08:58:18;;;;;;;3.37;2.17;;;12.30;99.90;;;;;;5032708;28;20301;-60
2023/01/02 09:00:45;;;;;;;4.00;2.30;;;12.40;99.90;;;;;;5033025;28;20213;-60
2023/01/02 09:03:12;;;;;;;4.63;2.43;;;12.50;99.90;;;;;;5032711;28;20226;-60
2023/01/02 09:05:39;;;;;;;4.57;2.40;;;12.70;99.90;;;;;;5032709;28;20210;-60
2023/01/02 09:08:07;;;;;;;3.57;2.20;;;12.80;99.90;;;;;;5032787;28;20681;-60
2023/01/02 09:10:34;;;;;;;3.10;2.13;;;13.00;99.90;;;;;;5033148;28;20210;-59
2023/01/02 09:13:00;;;;;;;5.10;2.47;;;13.20;99.90;;;;;;5032215;28;20633;-59
2023/01/02 09:15:27;;;;;;;3.90;2.23;;;13.30;99.90;;;;;;5032679;28;20213;-59
2023/01/02 09:17:54;;;;;;;4.33;2.10;;;13.30;99.90;;;;;;5032935;28;20341;-59
2023/01/02 09:20:20;;;;;;;4.87;2.73;;;13.40;99.90;;;;;;5032579;28;20213;-59
2023/01/02 09:22:47;;;;;;;6.87;2.57;;;13.50;99.90;;;;;;5032306;28;20226;-59
2023/01/02 09:25:15;;;;;;;5.57;2.93;;;13.60;99.90;;;;;;5032851;28;20213;-59
2023/01/02 09:27:42;;;;;;;4.10;2.27;;;13.50;99.90;;;;;;5032510;28;20233;-59
2023/01/02 09:30:09;;;;;;;4.23;2.37;;;13.50;99.90;;;;;;5032778;28;20272;-59
2023/01/02 09:32:36;;;;;;;10.53;2.60;;;13.50;99.90;;;;;;5032254;28;20572;-59
2023/01/02 09:35:04;;;;;;;5.63;2.27;;;13.50;99.90;;;;;;5032309;28;20233;-60
2023/01/02 09:37:31;;;;;;;6.10;2.00;;;13.60;99.90;;;;;;5032342;28;20210;-59
2023/01/02 09:39:57;;;;;;;5.10;2.03;;;13.70;99.90;;;;;;5032630;28;20219;-59
2023/01/02 09:42:26;;;;;;;5.00;2.10;;;13.90;99.90;;;;;;5032049;28;20653;-60
2023/01/02 09:44:55;;;;;;;2.80;1.60;;;14.10;99.90;;;;;;5032736;28;20213;-60
2023/01/02 09:47:28;;;;;;;5.57;1.70;;;14.30;99.90;;;;;;5032698;28;20215;-61
2023/01/02 09:49:57;;;;;;;4.93;2.00;;;14.50;99.90;;;;;;5032631;28;20217;-61
2023/01/02 09:52:27;;;;;;;9.43;1.80;;;14.60;99.90;;;;;;5032482;28;20240;-60
2023/01/02 09:54:54;;;;;;;6.30;1.90;;;14.80;99.90;;;;;;5032859;28;20214;-60
2023/01/02 09:57:32;;;;;;;5.00;1.80;;;14.90;99.90;;;;;;5032401;28;20293;-59
2023/01/02 10:00:04;;;;;;;6.43;1.77;;;15.20;99.90;;;;;;5035572;28;20224;-59
2023/01/02 10:02:45;;;;;;;4.70;2.00;;;15.30;99.90;;;;;;5035698;28;20230;-59
2023/01/02 10:05:36;;;;;;;3.97;2.17;;;15.40;99.90;;;;;;5036867;28;20209;-59
2023/01/02 10:08:12;;;;;;;7.10;1.47;;;15.60;99.90;;;;;;5037025;28;20222;-59
2023/01/02 10:10:42;;;;;;;3.72;2.03;;;15.70;99.90;;;;;;5036567;28;20670;-59
2023/01/02 10:13:17;;;;;;;6.30;2.13;;;15.80;99.90;;;;;;5036415;28;20724;-59
2023/01/02 10:15:46;;;;;;;5.43;1.80;;;16.00;99.90;;;;;;5036645;28;20463;-62
2023/01/02 10:18:21;;;;;;;6.03;1.83;;;16.20;99.90;;;;;;5036308;28;20210;-60
2023/01/02 10:20:55;;;;;;;4.60;1.77;;;16.30;99.90;;;;;;5036122;28;20206;-60
2023/01/02 10:23:26;;;;;;;4.60;1.80;;;16.30;99.90;;;;;;5035606;28;20226;-59
2023/01/02 10:25:56;;;;;;;4.22;2.08;;;16.40;99.90;;;;;;5035937;28;20609;-59
2023/01/02 10:28:33;;;;;;;5.60;2.35;;;16.60;99.90;;;;;;5035818;28;20268;-60
2023/01/02 10:31:03;;;;;;;4.63;1.92;;;16.70;99.90;;;;;;5036088;28;20195;-59
2023/01/02 10:33:36;;;;;;;6.78;2.10;;;16.90;99.90;;;;;;5035517;28;20230;-60
2023/01/02 10:36:03;;;;;;;6.93;2.50;;;16.90;99.90;;;;;;5035673;28;20217;-59
2023/01/02 10:38:35;;;;;;;5.88;2.03;;;16.80;99.90;;;;;;5035786;28;20199;-60
2023/01/02 10:41:03;;;;;;;8.30;2.40;;;16.70;99.90;;;;;;5035968;28;20214;-60
2023/01/02 10:43:33;;;;;;;8.60;2.40;;;16.50;99.90;;;;;;5035593;28;20234;-60
2023/01/02 10:46:00;;;;;;;5.35;2.40;;;16.40;99.90;;;;;;5035352;28;20206;-58
2023/01/02 10:48:31;;;;;;;6.53;2.30;;;16.20;99.90;;;;;;5035196;28;20230;-58
2023/01/02 10:51:02;;;;;;;5.30;2.13;;;16.10;99.90;;;;;;5035139;28;20701;-57
2023/01/02 10:53:31;;;;;;;5.53;2.45;;;16.20;99.90;;;;;;5035281;28;20230;-59
2023/01/02 10:56:01;;;;;;;7.15;2.50;;;16.40;99.90;;;;;;5035130;28;20210;-58
2023/01/02 10:58:32;;;;;;;8.10;2.47;;;16.40;99.90;;;;;;5034917;28;20229;-58
2023/01/02 11:01:07;;;;;;;4.63;2.60;;;16.50;99.90;;;;;;5035226;28;20689;-58
2023/01/02 11:03:34;;;;;;;4.60;2.22;;;16.70;99.90;;;;;;5034643;28;20707;-58
2023/01/02 11:06:01;;;;;;;8.57;4.00;;;16.90;99.90;;;;;;5035083;28;20237;-58
2023/01/02 11:08:35;;;;;;;10.20;3.33;;;17.10;99.90;;;;;;5034768;28;20222;-58
2023/01/02 11:11:12;;;;;;;5.43;2.60;;;17.30;99.90;;;;;;5033904;28;20202;-58
2023/01/02 11:13:46;;;;;;;5.50;2.70;;;17.40;99.90;;;;;;5034530;28;20225;-59
2023/01/02 11:16:16;;;;;;;7.68;2.45;;;17.30;99.90;;;;;;5034930;28;20205;-58
2023/01/02 11:18:50;;;;;;;4.28;2.28;;;17.30;99.90;;;;;;5034615;28;20199;-58
2023/01/02 11:21:25;;;;;;;4.22;2.35;;;17.30;99.90;;;;;;5034616;28;20217;-58
2023/01/02 11:23:59;;;;;;;5.40;2.08;;;17.20;99.90;;;;;;5034507;28;20221;-58
2023/01/02 11:26:27;;;;;;;4.05;2.20;;;17.20;99.90;;;;;;5034714;28;20216;-58
2023/01/02 11:28:58;;;;;;;5.22;2.30;;;17.20;99.90;;;;;;5034522;28;20230;-58
2023/01/02 11:31:25;;;;;;;7.43;2.97;;;17.30;99.90;;;;;;5034726;28;20252;-58
2023/01/02 11:34:06;;;;;;;7.63;2.83;;;17.40;99.90;;;;;;5034357;28;20223;-58
2023/01/02 11:36:33;;;;;;;4.45;2.00;;;17.60;99.90;;;;;;5034491;28;20615;-58
2023/01/02 11:39:20;;;;;;;7.00;2.28;;;17.80;99.90;;;;;;5034639;28;20230;-59
2023/01/02 11:44:53;;;;;;;4.35;1.95;;;18.20;99.90;;;;;;5034462;28;20236;-58
2023/01/02 11:47:29;;;;;;;4.45;2.30;;;18.30;99.90;;;;;;5034907;28;20206;-58
2023/01/02 11:49:57;;;;;;;5.78;2.85;;;18.30;99.90;;;;;;5035561;28;20230;-58
2023/01/02 11:52:30;;;;;;;5.75;2.60;;;18.50;99.90;;;;;;5035202;28;20230;-58
2023/01/02 11:55:01;;;;;;;5.65;2.35;;;18.60;99.90;;;;;;5035634;28;20210;-58
2023/01/02 11:57:35;;;;;;;6.78;2.25;;;18.60;99.90;;;;;;5035260;28;20206;-58
2023/01/02 12:00:10;;;;;;;5.40;2.65;;;18.60;99.90;;;;;;5035012;28;20206;-58
2023/01/02 12:02:41;;;;;;;7.32;2.80;;;18.50;99.90;;;;;;5035030;28;20229;-58
2023/01/02 12:05:12;;;;;;;4.93;2.13;;;18.60;99.90;;;;;;5035867;28;20206;-58
2023/01/02 12:07:44;;;;;;;6.47;2.80;;;18.50;99.90;;;;;;5036005;28;20202;-59
2023/01/02 12:10:27;;;;;;;7.35;2.70;;;18.50;99.90;;;;;;5035752;28;20230;-58
2023/01/02 12:13:14;;;;;;;7.28;2.20;;;18.60;99.90;;;;;;5036497;28;20258;-58
2023/01/02 12:16:00;;;;;;;4.75;2.40;;;18.80;99.90;;;;;;5036249;28;20206;-59
2023/01/02 12:18:41;;;;;;;5.97;2.35;;;18.80;99.90;;;;;;5036670;28;20208;-59
2023/01/02 12:21:18;;;;;;;7.60;2.60;;;18.80;99.90;;;;;;5036690;28;20260;-58
2023/01/02 12:24:37;;;;;;;3.85;2.50;;;18.80;99.90;;;;;;5035038;28;20250;-58
2023/01/02 12:27:10;;;;;;;5.25;2.17;;;18.80;99.90;;;;;;5029711;28;20206;-58
2023/01/02 12:29:57;;;;;;;6.63;2.40;;;18.80;99.90;;;;;;5036965;28;20714;-58
2023/01/02 12:32:50;;;;;;;8.10;2.13;;;18.80;99.90;;;;;;5035892;28;20226;-58
2023/01/02 12:35:41;;;;;;;3.92;2.10;;;18.80;99.90;;;;;;5036485;28;20210;-58
2023/01/02 12:38:08;;;;;;;6.18;2.75;;;18.90;99.90;;;;;;5036122;28;20202;-59
2023/01/02 12:40:54;;;;;;;6.43;2.20;;;19.00;99.90;;;;;;5035663;28;20682;-58
2023/01/02 12:43:51;;;;;;;8.38;2.40;;;19.00;99.90;;;;;;5034718;28;20234;-58
2023/01/02 12:46:35;;;;;;;7.28;2.40;;;19.00;99.90;;;;;;5034000;28;20206;-59
2023/01/02 12:49:22;;;;;;;8.38;2.55;;;19.00;99.90;;;;;;5034774;28;20222;-58
2023/01/02 12:52:01;;;;;;;5.97;2.35;;;18.80;99.90;;;;;;5034171;28;20236;-58
2023/01/02 12:54:45;;;;;;;6.68;2.22;;;18.70;99.90;;;;;;5034596;28;20492;-57
2023/01/02 12:57:19;;;;;;;6.53;2.53;;;18.70;99.90;;;;;;5034947;28;20248;-58
2023/01/02 13:00:15;;;;;;;4.93;2.03;;;18.90;99.90;;;;;;5033828;28;20546;-58
2023/01/02 13:03:01;;;;;;;5.57;1.98;;;19.00;99.90;;;;;;5034043;28;20226;-57
2023/01/02 13:05:38;;;;;;;7.20;2.30;;;19.00;99.90;;;;;;5033583;28;20221;-58
2023/01/02 13:08:13;;;;;;;5.90;2.38;;;18.80;99.90;;;;;;5033833;28;20292;-58